createdAt,value
2022-10-22T00:02:07.872Z,100555.06
2022-10-22T00:04:35.654Z,100560.00
2022-10-22T00:07:02.985Z,100557.38
2022-10-22T00:09:29.600Z,100548.84
2022-10-22T00:11:57.490Z,100548.09
2022-10-22T00:14:24.155Z,100550.41
2022-10-22T00:16:50.864Z,100554.13
2022-10-22T00:19:17.479Z,100550.63
2022-10-22T00:21:44.197Z,100555.47
2022-10-22T00:24:11.054Z,100562.00
2022-10-22T00:26:39.398Z,100558.63
2022-10-22T00:29:06.295Z,100556.19
2022-10-22T00:31:33.398Z,100565.38
2022-10-22T00:34:00.053Z,100568.13
2022-10-22T00:36:26.702Z,100566.84
2022-10-22T00:38:53.454Z,100568.31
2022-10-22T00:41:20.313Z,100573.50
2022-10-22T00:44:00.827Z,100572.44
2022-10-22T00:46:27.488Z,100570.13
2022-10-22T00:48:55.814Z,100568.53
2022-10-22T00:51:25.818Z,100570.44
2022-10-22T00:53:56.463Z,100572.38
2022-10-22T00:56:24.546Z,100574.75
2022-10-22T00:58:55.509Z,100571.63
2022-10-22T01:01:25.981Z,100575.72
2022-10-22T01:03:53.356Z,100567.06
2022-10-22T01:06:26.714Z,100572.97
2022-10-22T01:09:22.043Z,100574.75
2022-10-22T01:12:15.286Z,100575.94
2022-10-22T01:15:01.501Z,100576.16
2022-10-22T01:17:47.562Z,100572.22
2022-10-22T01:20:32.377Z,100570.88
2022-10-22T01:23:17.338Z,100579.28
2022-10-22T01:26:10.874Z,100574.00
2022-10-22T01:29:02.517Z,100569.91
2022-10-22T01:31:35.091Z,100579.28
2022-10-22T01:34:03.534Z,100573.59
2022-10-22T01:36:31.747Z,100589.94
2022-10-22T01:39:00.668Z,100582.66
2022-10-22T01:41:28.918Z,100588.38
2022-10-22T01:43:55.794Z,100593.44
2022-10-22T01:46:25.210Z,100595.44
2022-10-22T01:49:18.081Z,100595.47
2022-10-22T01:51:53.437Z,100590.28
2022-10-22T01:54:59.901Z,100578.63
2022-10-22T01:57:51.211Z,100577.88
2022-10-22T02:00:19.110Z,100581.91
2022-10-22T02:03:04.649Z,100573.53
2022-10-22T02:05:49.150Z,100582.00
2022-10-22T02:08:20.403Z,100583.81
2022-10-22T02:10:49.422Z,100579.47
2022-10-22T02:13:19.486Z,100583.50
2022-10-22T02:15:49.168Z,100586.69
2022-10-22T02:18:17.728Z,100575.50
2022-10-22T02:20:44.472Z,100580.97
2022-10-22T02:23:11.935Z,100567.50
2022-10-22T02:25:42.215Z,100567.91
2022-10-22T02:28:32.116Z,100558.84
2022-10-22T02:31:07.725Z,100558.28
2022-10-22T02:33:40.112Z,100552.19
2022-10-22T02:36:08.132Z,100557.94
2022-10-22T02:38:36.261Z,100552.06
2022-10-22T02:41:03.587Z,100555.78
2022-10-22T02:43:30.329Z,100552.63
2022-10-22T02:45:57.344Z,100555.28
2022-10-22T02:48:24.398Z,100560.13
2022-10-22T02:50:51.153Z,100562.13
2022-10-22T02:53:17.944Z,100557.28
2022-10-22T02:55:44.743Z,100559.16
2022-10-22T02:58:13.907Z,100559.06
2022-10-22T03:00:40.701Z,100551.75
2022-10-22T03:03:07.340Z,100556.81
2022-10-22T03:05:34.117Z,100558.06
2022-10-22T03:08:00.813Z,100550.78
2022-10-22T03:10:27.521Z,100560.44
2022-10-22T03:12:54.571Z,100562.13
2022-10-22T03:15:21.269Z,100567.69
2022-10-22T03:17:48.037Z,100565.91
2022-10-22T03:20:14.872Z,100563.28
2022-10-22T03:22:43.570Z,100571.75
2022-10-22T03:25:21.118Z,100565.16
2022-10-22T03:27:48.822Z,100571.81
2022-10-22T03:30:16.002Z,100575.69
2022-10-22T03:32:42.738Z,100575.50
2022-10-22T03:35:09.509Z,100572.13
2022-10-22T03:37:36.854Z,100577.22
2022-10-22T03:40:07.983Z,100579.81
2022-10-22T03:42:34.756Z,100584.72
2022-10-22T03:45:01.507Z,100591.28
2022-10-22T03:47:28.207Z,100597.88
2022-10-22T03:49:54.871Z,100598.41
2022-10-22T03:52:21.739Z,100600.28
2022-10-22T03:54:48.442Z,100606.31
2022-10-22T03:57:15.914Z,100600.84
2022-10-22T03:59:44.431Z,100603.00
2022-10-22T04:02:12.375Z,100610.25
2022-10-22T04:04:39.681Z,100619.44
2022-10-22T04:07:07.325Z,100610.78
2022-10-22T04:09:34.600Z,100615.94
2022-10-22T04:12:01.902Z,100615.09
2022-10-22T04:14:28.572Z,100612.41
2022-10-22T04:16:55.574Z,100620.91
2022-10-22T04:19:22.429Z,100621.97
2022-10-22T04:21:49.188Z,100620.41
2022-10-22T04:24:16.411Z,100621.25
2022-10-22T04:26:43.315Z,100624.22
2022-10-22T04:29:13.611Z,100631.47
2022-10-22T04:31:42.864Z,100633.16
2022-10-22T04:34:09.499Z,100632.34
2022-10-22T04:36:36.396Z,100635.06
2022-10-22T04:39:04.416Z,100624.91
2022-10-22T04:41:40.361Z,100625.38
2022-10-22T04:44:11.073Z,100630.75
2022-10-22T04:46:42.768Z,100628.28
2022-10-22T04:49:09.440Z,100625.59
2022-10-22T04:51:36.188Z,100623.94
2022-10-22T04:54:04.065Z,100624.03
2022-10-22T04:56:32.441Z,100616.66
2022-10-22T04:59:05.191Z,100628.38
2022-10-22T05:01:39.889Z,100633.50
2022-10-22T05:04:12.657Z,100627.03
2022-10-22T05:06:39.449Z,100621.59
2022-10-22T05:09:14.443Z,100616.97
2022-10-22T05:11:45.475Z,100612.09
2022-10-22T05:14:12.803Z,100613.81
2022-10-22T05:16:39.905Z,100611.84
2022-10-22T05:19:07.968Z,100615.09
2022-10-22T05:21:35.208Z,100625.28
2022-10-22T05:24:02.283Z,100622.16
2022-10-22T05:26:29.757Z,100615.91
2022-10-22T05:28:56.715Z,100617.56
2022-10-22T05:31:23.995Z,100617.81
2022-10-22T05:33:50.737Z,100621.53
2022-10-22T05:36:20.784Z,100623.00
2022-10-22T05:38:48.039Z,100625.56
2022-10-22T05:41:21.746Z,100619.84
2022-10-22T05:43:48.976Z,100615.81
2022-10-22T05:46:22.152Z,100628.75
2022-10-22T05:48:55.379Z,100631.81
2022-10-22T05:51:22.718Z,100641.22
2022-10-22T05:53:52.727Z,100642.47
2022-10-22T05:56:19.434Z,100643.31
2022-10-22T05:58:47.124Z,100646.75
2022-10-22T06:01:14.077Z,100647.59
2022-10-22T06:03:41.440Z,100645.69
2022-10-22T06:06:18.686Z,100653.81
2022-10-22T06:08:47.862Z,100660.75
2022-10-22T06:11:14.781Z,100669.50
2022-10-22T06:13:41.386Z,100669.06
2022-10-22T06:16:08.101Z,100661.78
2022-10-22T06:18:35.065Z,100670.81
2022-10-22T06:21:07.925Z,100676.34
2022-10-22T06:23:35.305Z,100670.72
2022-10-22T06:26:02.746Z,100679.06
2022-10-22T06:28:29.721Z,100681.13
2022-10-22T06:31:01.588Z,100672.59
2022-10-22T06:33:29.333Z,100678.22
2022-10-22T06:35:56.203Z,100686.94
2022-10-22T06:38:22.841Z,100684.72
2022-10-22T06:41:15.910Z,100684.44
2022-10-22T06:43:45.310Z,100688.38
2022-10-22T06:46:14.789Z,100688.47
2022-10-22T06:48:51.992Z,100685.56
2022-10-22T06:51:19.354Z,100686.81
2022-10-22T06:53:46.000Z,100685.84
2022-10-22T06:56:15.001Z,100689.53
2022-10-22T06:58:41.783Z,100697.44
2022-10-22T07:01:13.568Z,100695.69
2022-10-22T07:03:41.613Z,100706.06
2022-10-22T07:06:11.093Z,100699.53
2022-10-22T07:08:38.495Z,100703.63
2022-10-22T07:11:07.769Z,100714.13
2022-10-22T07:13:35.044Z,100722.09
2022-10-22T07:16:01.944Z,100732.53
2022-10-22T07:18:28.667Z,100727.88
2022-10-22T07:20:55.325Z,100732.19
2022-10-22T07:23:21.892Z,100728.06
2022-10-22T07:25:48.724Z,100735.03
2022-10-22T07:28:15.347Z,100737.25
2022-10-22T07:30:42.004Z,100734.63
2022-10-22T07:33:09.010Z,100736.03
2022-10-22T07:35:37.389Z,100745.63
2022-10-22T07:38:04.796Z,100745.06
2022-10-22T07:40:31.835Z,100743.84
2022-10-22T07:42:58.542Z,100752.25
2022-10-22T07:45:27.705Z,100742.81
2022-10-22T07:47:54.445Z,100745.72
2022-10-22T07:50:21.606Z,100746.28
2022-10-22T07:52:48.317Z,100747.59
2022-10-22T07:55:14.930Z,100749.09
2022-10-22T07:57:41.577Z,100764.22
2022-10-22T08:00:09.551Z,100756.03
2022-10-22T08:02:39.384Z,100758.31
2022-10-22T08:05:06.816Z,100760.84
2022-10-22T08:07:33.516Z,100767.41
2022-10-22T08:10:01.265Z,100763.22
2022-10-22T08:12:27.871Z,100767.09
2022-10-22T08:14:54.809Z,100775.75
2022-10-22T08:17:21.764Z,100774.88
2022-10-22T08:19:48.350Z,100772.97
2022-10-22T08:22:15.027Z,100773.81
2022-10-22T08:24:41.634Z,100777.25
2022-10-22T08:27:08.237Z,100769.97
2022-10-22T08:29:34.847Z,100772.00
2022-10-22T08:32:02.911Z,100772.69
2022-10-22T08:34:30.308Z,100775.63
2022-10-22T08:36:56.950Z,100785.31
2022-10-22T08:39:24.338Z,100788.09
2022-10-22T08:42:03.886Z,100782.38
2022-10-22T08:44:39.702Z,100787.34
2022-10-22T08:47:22.589Z,100791.13
2022-10-22T08:49:49.699Z,100783.50
2022-10-22T08:52:20.024Z,100783.75
2022-10-22T08:54:54.487Z,100790.53
2022-10-22T08:57:52.439Z,100794.22
2022-10-22T09:00:34.298Z,100798.56
2022-10-22T09:03:09.807Z,100797.69
2022-10-22T09:05:56.003Z,100804.50
2022-10-22T09:08:23.378Z,100797.78
2022-10-22T09:10:55.804Z,100792.78
2022-10-22T09:13:23.565Z,100796.31
2022-10-22T09:15:57.598Z,100799.31
2022-10-22T09:18:46.360Z,100799.81
2022-10-22T09:21:37.978Z,100802.88
2022-10-22T09:24:13.662Z,100793.19
2022-10-22T09:26:41.361Z,100795.28
2022-10-22T09:29:19.371Z,100787.94
2022-10-22T09:31:46.288Z,100793.13
2022-10-22T09:34:15.958Z,100782.91
2022-10-22T09:36:42.463Z,100778.88
2022-10-22T09:39:26.731Z,100778.91
2022-10-22T09:41:53.538Z,100770.78
2022-10-22T09:44:20.843Z,100777.97
2022-10-22T09:46:47.453Z,100772.13
2022-10-22T09:49:17.737Z,100775.78
2022-10-22T09:52:01.024Z,100776.31
2022-10-22T09:54:33.272Z,100772.44
2022-10-22T09:57:06.934Z,100788.00
2022-10-22T09:59:38.182Z,100784.25
2022-10-22T10:02:38.772Z,100789.34
2022-10-22T10:05:07.231Z,100783.94
2022-10-22T10:07:35.932Z,100784.25
2022-10-22T10:10:10.369Z,100794.78
2022-10-22T10:15:56.294Z,100785.72
2022-10-22T10:18:48.386Z,100785.13
2022-10-22T10:21:39.056Z,100784.84
2022-10-22T10:24:42.886Z,100786.97
2022-10-22T10:27:28.133Z,100782.38
2022-10-22T10:30:04.203Z,100778.59
2022-10-22T10:33:06.170Z,100775.72
2022-10-22T10:35:55.195Z,100782.03
2022-10-22T10:38:40.274Z,100779.91
2022-10-22T10:41:28.414Z,100784.72
2022-10-22T10:44:17.005Z,100780.69
2022-10-22T10:47:22.174Z,100770.09
2022-10-22T10:49:54.845Z,100774.28
2022-10-22T10:52:34.868Z,100768.69
2022-10-22T10:55:19.415Z,100775.72
2022-10-22T10:58:04.584Z,100769.38
2022-10-22T11:00:39.549Z,100771.50
2022-10-22T11:03:40.462Z,100775.31
2022-10-22T11:06:14.633Z,100766.22
2022-10-22T11:08:45.961Z,100767.75
2022-10-22T11:11:19.571Z,100774.28
2022-10-22T11:13:53.366Z,100780.00
2022-10-22T11:16:42.431Z,100771.69
2022-10-22T11:19:46.156Z,100762.84
2022-10-22T11:22:28.668Z,100761.69
2022-10-22T11:24:55.281Z,100769.81
2022-10-22T11:27:27.864Z,100765.91
2022-10-22T11:30:02.276Z,100762.34
2022-10-22T11:32:29.921Z,100763.34
2022-10-22T11:34:59.672Z,100765.31
2022-10-22T11:37:34.541Z,100758.91
2022-10-22T11:40:18.501Z,100763.94
2022-10-22T11:42:53.817Z,100755.91
2022-10-22T11:45:23.162Z,100756.91
2022-10-22T11:48:11.538Z,100749.50
2022-10-22T11:50:48.418Z,100746.97
2022-10-22T11:53:14.896Z,100751.63
2022-10-22T11:55:45.974Z,100757.09
2022-10-22T11:58:32.990Z,100755.28
2022-10-22T12:01:02.440Z,100752.59
2022-10-22T12:03:31.880Z,100761.22
2022-10-22T12:06:15.369Z,100758.22
2022-10-22T12:08:54.556Z,100756.06
2022-10-22T12:11:41.441Z,100760.47
2022-10-22T12:14:20.478Z,100757.03
2022-10-22T12:17:02.833Z,100760.78
2022-10-22T12:19:51.148Z,100755.19
2022-10-22T12:22:32.578Z,100746.97
2022-10-22T12:25:06.333Z,100749.25
2022-10-22T12:27:38.438Z,100755.34
2022-10-22T12:30:23.778Z,100754.03
2022-10-22T12:33:01.119Z,100756.78
2022-10-22T12:35:31.294Z,100753.97
2022-10-22T12:38:08.294Z,100765.03
2022-10-22T12:40:35.616Z,100757.78
2022-10-22T12:45:38.565Z,100765.31
2022-10-22T12:48:14.558Z,100763.69
2022-10-22T12:50:43.191Z,100762.72
2022-10-22T12:53:39.251Z,100778.09
2022-10-22T12:56:10.489Z,100778.47
2022-10-22T12:58:41.593Z,100776.09
2022-10-22T13:01:11.992Z,100775.06
2022-10-22T13:03:45.582Z,100775.72
2022-10-22T13:06:25.050Z,100776.75
2022-10-22T13:09:16.510Z,100767.50
2022-10-22T13:12:04.612Z,100775.00
2022-10-22T13:14:34.106Z,100775.72
2022-10-22T13:17:15.661Z,100780.78
2022-10-22T13:20:05.338Z,100781.69
2022-10-22T13:22:40.279Z,100786.03
2022-10-22T13:25:25.108Z,100789.31
2022-10-22T13:27:54.342Z,100779.41
2022-10-22T13:30:26.932Z,100782.00
2022-10-22T13:32:56.354Z,100782.44
2022-10-22T13:35:29.335Z,100778.75
2022-10-22T13:37:55.980Z,100787.22
2022-10-22T13:40:22.586Z,100787.34
2022-10-22T13:42:49.279Z,100788.31
2022-10-22T13:45:16.315Z,100779.25
2022-10-22T13:47:46.560Z,100788.22
2022-10-22T13:50:15.998Z,100780.66
2022-10-22T13:52:54.510Z,100779.44
2022-10-22T13:55:26.900Z,100781.81
2022-10-22T13:57:57.527Z,100786.78
2022-10-22T14:00:24.931Z,100780.75
2022-10-22T14:02:54.395Z,100777.00
2022-10-22T14:05:21.527Z,100775.19
2022-10-22T14:07:50.148Z,100772.47
2022-10-22T14:10:24.510Z,100783.72
2022-10-22T14:12:53.457Z,100788.34
2022-10-22T14:15:25.199Z,100787.88
2022-10-22T14:17:57.518Z,100789.09
2022-10-22T14:20:31.016Z,100783.78
2022-10-22T14:23:02.824Z,100779.16
2022-10-22T14:25:31.455Z,100784.00
2022-10-22T14:27:58.070Z,100787.03
2022-10-22T14:30:26.036Z,100782.06
2022-10-22T14:32:53.046Z,100779.31
2022-10-22T14:35:22.709Z,100785.09
2022-10-22T14:37:49.466Z,100782.06
2022-10-22T14:40:20.098Z,100785.50
2022-10-22T14:42:48.857Z,100789.72
2022-10-22T14:45:24.613Z,100785.50
2022-10-22T14:47:52.290Z,100786.03
2022-10-22T14:50:19.325Z,100787.75
2022-10-22T14:52:46.060Z,100785.66
2022-10-22T14:55:15.003Z,100784.50
2022-10-22T14:57:42.260Z,100780.03
2022-10-22T15:00:12.738Z,100788.31
2022-10-22T15:02:39.809Z,100787.13
2022-10-22T15:05:07.916Z,100778.53
2022-10-22T15:07:34.862Z,100787.78
2022-10-22T15:10:01.835Z,100788.63
2022-10-22T15:12:28.849Z,100798.69
2022-10-22T15:14:55.359Z,100801.72
2022-10-22T15:17:21.919Z,100810.03
2022-10-22T15:19:48.638Z,100812.59
2022-10-22T15:22:15.707Z,100813.34
2022-10-22T15:24:45.203Z,100815.25
2022-10-22T15:27:15.062Z,100820.81
2022-10-22T15:29:42.453Z,100812.97
2022-10-22T15:32:12.904Z,100827.66
2022-10-22T15:34:40.074Z,100822.38
2022-10-22T15:37:09.161Z,100822.97
2022-10-22T15:39:35.981Z,100829.97
2022-10-22T15:42:02.485Z,100826.09
2022-10-22T15:44:31.369Z,100838.16
2022-10-22T15:46:58.183Z,100834.78
2022-10-22T15:49:27.280Z,100832.81
2022-10-22T15:51:55.091Z,100839.91
2022-10-22T15:54:24.162Z,100841.19
2022-10-22T15:56:51.088Z,100846.28
2022-10-22T15:59:18.130Z,100853.78
2022-10-22T16:01:45.215Z,100859.28
2022-10-22T16:04:12.022Z,100859.72
2022-10-22T16:06:43.950Z,100858.41
2022-10-22T16:09:16.707Z,100864.56
2022-10-22T16:11:44.594Z,100865.66
2022-10-22T16:14:12.985Z,100859.75
2022-10-22T16:16:43.655Z,100863.16
2022-10-22T16:19:15.584Z,100870.63
2022-10-22T16:21:42.528Z,100880.69
2022-10-22T16:24:09.764Z,100870.13
2022-10-22T16:26:36.512Z,100881.72
2022-10-22T16:29:04.705Z,100873.09
2022-10-22T16:31:31.418Z,100885.97
2022-10-22T16:33:58.548Z,100887.66
2022-10-22T16:36:25.389Z,100889.78
2022-10-22T16:38:52.089Z,100898.53
2022-10-22T16:41:21.630Z,100889.56
2022-10-22T16:43:50.789Z,100896.69
2022-10-22T16:46:19.500Z,100896.88
2022-10-22T16:48:49.982Z,100900.19
2022-10-22T16:51:19.189Z,100907.75
2022-10-22T16:53:45.946Z,100908.16
2022-10-22T16:56:14.257Z,100906.16
2022-10-22T16:58:46.282Z,100917.31
2022-10-22T17:01:17.664Z,100911.72
2022-10-22T17:03:45.061Z,100919.41
2022-10-22T17:06:12.290Z,100920.59
2022-10-22T17:08:40.728Z,100922.75
2022-10-22T17:11:18.822Z,100919.94
2022-10-22T17:13:49.043Z,100930.13
2022-10-22T17:16:18.391Z,100935.31
2022-10-22T17:21:14.346Z,100931.03
2022-10-22T17:23:42.712Z,100935.38
2022-10-22T17:26:14.969Z,100945.03
2022-10-22T17:28:41.735Z,100953.41
2022-10-22T17:31:11.370Z,100950.94
2022-10-22T17:33:38.264Z,100952.13
2022-10-22T17:36:10.870Z,100960.50
2022-10-22T17:38:38.872Z,100958.66
2022-10-22T17:41:08.009Z,100958.41
2022-10-22T17:43:36.008Z,100961.44
2022-10-22T17:46:07.016Z,100971.56
2022-10-22T17:48:34.599Z,100964.09
2022-10-22T17:51:01.221Z,100966.94
2022-10-22T17:53:27.943Z,100968.50
2022-10-22T17:56:07.016Z,100973.34
2022-10-22T17:58:33.709Z,100984.25
2022-10-22T18:01:03.593Z,100985.31
2022-10-22T18:03:30.382Z,100985.47
2022-10-22T18:06:08.440Z,100990.41
2022-10-22T18:08:35.240Z,100986.69
2022-10-22T18:11:17.714Z,100992.19
2022-10-22T18:13:47.606Z,100990.38
2022-10-22T18:16:14.333Z,100990.88
2022-10-22T18:18:41.239Z,100991.47
2022-10-22T18:21:07.833Z,100989.97
2022-10-22T18:23:34.613Z,100992.16
2022-10-22T18:26:04.683Z,100995.44
2022-10-22T18:28:31.438Z,100995.38
2022-10-22T18:30:58.438Z,100993.75
2022-10-22T18:33:25.837Z,100999.78
2022-10-22T18:35:52.543Z,100992.84
2022-10-22T18:38:22.356Z,100999.59
2022-10-22T18:40:50.230Z,100998.38
2022-10-22T18:43:26.494Z,100999.97
2022-10-22T18:45:53.104Z,101006.97
2022-10-22T18:48:22.771Z,101003.66
2022-10-22T18:51:08.003Z,100999.66
2022-10-22T18:53:38.406Z,101003.06
2022-10-22T18:56:06.876Z,101001.66
2022-10-22T18:58:44.878Z,101004.22
2022-10-22T19:01:14.664Z,101008.53
2022-10-22T19:03:41.857Z,101012.25
2022-10-22T19:06:08.728Z,101016.56
2022-10-22T19:08:36.514Z,101022.72
2022-10-22T19:11:13.521Z,101026.06
2022-10-22T19:13:40.770Z,101018.53
2022-10-22T19:16:11.185Z,101022.78
2022-10-22T19:18:42.283Z,101029.03
2022-10-22T19:21:08.984Z,101027.25
2022-10-22T19:23:35.736Z,101033.19
2022-10-22T19:26:04.996Z,101025.34
2022-10-22T19:28:31.812Z,101027.56
2022-10-22T19:30:58.793Z,101032.53
2022-10-22T19:33:26.800Z,101032.97
2022-10-22T19:35:53.503Z,101030.34
2022-10-22T19:38:20.145Z,101032.06
2022-10-22T19:40:46.729Z,101046.75
2022-10-22T19:43:16.776Z,101048.66
2022-10-22T19:45:45.553Z,101044.25
2022-10-22T19:48:12.145Z,101051.16
2022-10-22T19:50:39.093Z,101047.09
2022-10-22T19:53:05.718Z,101050.50
2022-10-22T19:55:32.329Z,101054.72
2022-10-22T19:57:58.948Z,101048.91
2022-10-22T20:00:25.607Z,101055.09
2022-10-22T20:02:52.225Z,101054.41
2022-10-22T20:05:18.913Z,101056.75
2022-10-22T20:07:45.641Z,101072.72
2022-10-22T20:10:12.442Z,101065.09
2022-10-22T20:12:39.053Z,101062.34
2022-10-22T20:15:06.379Z,101071.44
2022-10-22T20:17:34.127Z,101066.16
2022-10-22T20:20:00.804Z,101078.22
2022-10-22T20:22:27.341Z,101080.94
2022-10-22T20:24:54.323Z,101086.97
2022-10-22T20:27:21.480Z,101085.09
2022-10-22T20:29:48.038Z,101091.75
2022-10-22T20:32:14.747Z,101090.38
2022-10-22T20:34:42.439Z,101098.88
2022-10-22T20:37:09.116Z,101102.75
2022-10-22T20:39:36.028Z,101103.41
2022-10-22T20:42:02.848Z,101102.41
2022-10-22T20:44:29.506Z,101113.81
2022-10-22T20:49:27.704Z,101114.56
2022-10-22T20:51:54.354Z,101105.53
2022-10-22T20:54:20.979Z,101107.53
2022-10-22T20:56:48.118Z,101105.28
2022-10-22T20:59:15.452Z,101108.53
2022-10-22T21:01:48.714Z,101112.13
2022-10-22T21:04:16.781Z,101112.38
2022-10-22T21:06:44.621Z,101115.00
2022-10-22T21:09:13.818Z,101116.81
2022-10-22T21:11:41.783Z,101100.44
2022-10-22T21:14:10.985Z,101110.09
2022-10-22T21:16:40.966Z,101114.88
2022-10-22T21:19:07.607Z,101109.06
2022-10-22T21:21:34.238Z,101114.13
2022-10-22T21:24:00.864Z,101108.91
2022-10-22T21:26:27.483Z,101111.78
2022-10-22T21:28:54.059Z,101110.88
2022-10-22T21:31:26.038Z,101114.63
2022-10-22T21:33:53.850Z,101118.50
2022-10-22T21:36:23.178Z,101122.25
2022-10-22T21:38:51.806Z,101116.59
2022-10-22T21:41:20.059Z,101118.72
2022-10-22T21:43:46.981Z,101112.84
2022-10-22T21:46:17.200Z,101113.78
2022-10-22T21:48:44.427Z,101123.03
2022-10-22T21:51:17.655Z,101124.81
2022-10-22T21:53:45.046Z,101123.41
2022-10-22T21:56:19.309Z,101113.78
2022-10-22T21:58:46.159Z,101118.69
2022-10-22T22:01:14.512Z,101123.22
2022-10-22T22:03:43.656Z,101125.00
2022-10-22T22:06:10.765Z,101124.91
2022-10-22T22:08:37.768Z,101118.63
2022-10-22T22:11:07.567Z,101126.50
2022-10-22T22:13:34.976Z,101126.31
2022-10-22T22:16:07.701Z,101131.09
2022-10-22T22:18:35.767Z,101133.75
2022-10-22T22:21:08.092Z,101127.34
2022-10-22T22:23:37.933Z,101124.91
2022-10-22T22:26:05.220Z,101126.22
2022-10-22T22:28:32.968Z,101125.28
2022-10-22T22:31:00.531Z,101139.78
2022-10-22T22:33:27.793Z,101133.16
2022-10-22T22:35:58.880Z,101133.16
2022-10-22T22:38:25.519Z,101134.09
2022-10-22T22:40:52.221Z,101135.53
2022-10-22T22:43:18.832Z,101136.38
2022-10-22T22:45:45.446Z,101121.53
2022-10-22T22:48:12.041Z,101116.81
2022-10-22T22:50:38.679Z,101127.97
2022-10-22T22:53:05.251Z,101128.50
2022-10-22T22:55:32.048Z,101120.66
2022-10-22T22:57:58.953Z,101124.16
2022-10-22T23:00:25.763Z,101120.56
2022-10-22T23:02:56.027Z,101119.63
2022-10-22T23:05:22.879Z,101128.47
2022-10-22T23:07:49.469Z,101128.06
2022-10-22T23:10:16.211Z,101125.38
2022-10-22T23:12:43.157Z,101126.41
2022-10-22T23:15:10.373Z,101129.88
2022-10-22T23:17:36.966Z,101131.72
2022-10-22T23:20:04.052Z,101131.41
2022-10-22T23:22:30.766Z,101132.59
2022-10-22T23:24:57.362Z,101129.41
2022-10-22T23:27:23.934Z,101125.25
2022-10-22T23:29:50.623Z,101118.38
2022-10-22T23:32:17.245Z,101119.97
2022-10-22T23:34:43.847Z,101125.16
2022-10-22T23:37:12.259Z,101130.75
2022-10-22T23:39:38.880Z,101131.63
2022-10-22T23:42:05.655Z,101130.34
2022-10-22T23:44:32.401Z,101133.31
2022-10-22T23:46:59.100Z,101128.50
2022-10-22T23:49:25.762Z,101134.09
2022-10-22T23:51:52.414Z,101130.03
2022-10-22T23:54:19.255Z,101137.63
2022-10-22T23:56:46.142Z,101137.84
